sensor_id;sensor_type;location;lat;lon;timestamp;pressure;altitude;pressure_sealevel;temperature;humidity
8061;BME280;4073;42.626;25.386;2024-01-15T00:01:14;96696.38;;;-2.92;100.00
8061;BME280;4073;42.626;25.386;2024-01-15T00:03:40;96683.94;;;-2.90;100.00
8061;BME280;4073;42.626;25.386;2024-01-15T00:06:05;96673.25;;;-3.02;100.00
8061;BME280;4073;42.626;25.386;2024-01-15T00:08:31;96683.31;;;-2.99;100.00
8061;BME280;4073;42.626;25.386;2024-01-15T00:10:56;96680.88;;;-3.07;100.00
8061;BME280;4073;42.626;25.386;2024-01-15T00:13:22;96686.72;;;-3.05;100.00
8061;BME280;4073;42.626;25.386;2024-01-15T00:15:47;96697.75;;;-3.16;100.00
8061;BME280;4073;42.626;25.386;2024-01-15T00:18:13;96685.44;;;-3.41;100.00
8061;BME280;4073;42.626;25.386;2024-01-15T00:20:38;96699.06;;;-3.46;100.00
8061;BME280;4073;42.626;25.386;2024-01-15T00:23:04;96704.00;;;-3.64;100.00
8061;BME280;4073;42.626;25.386;2024-01-15T00:25:29;96695.97;;;-3.69;100.00
8061;BME280;4073;42.626;25.386;2024-01-15T00:27:55;96703.03;;;-3.63;100.00
8061;BME280;4073;42.626;25.386;2024-01-15T00:30:20;96700.22;;;-3.61;100.00
8061;BME280;4073;42.626;25.386;2024-01-15T00:32:46;96706.22;;;-3.61;100.00
8061;BME280;4073;42.626;25.386;2024-01-15T00:35:11;96692.13;;;-3.73;100.00
8061;BME280;4073;42.626;25.386;2024-01-15T00:37:37;96683.66;;;-3.81;100.00
8061;BME280;4073;42.626;25.386;2024-01-15T00:40:04;96691.13;;;-3.72;100.00
8061;BME280;4073;42.626;25.386;2024-01-15T00:42:30;96685.25;;;-3.80;100.00
8061;BME280;4073;42.626;25.386;2024-01-15T00:44:56;96682.97;;;-3.96;100.00
8061;BME280;4073;42.626;25.386;2024-01-15T00:47:21;96680.16;;;-3.95;100.00
8061;BME280;4073;42.626;25.386;2024-01-15T00:49:47;96690.59;;;-3.95;100.00
8061;BME280;4073;42.626;25.386;2024-01-15T00:52:12;96682.75;;;-4.01;100.00
8061;BME280;4073;42.626;25.386;2024-01-15T00:54:38;96679.50;;;-4.03;100.00
8061;BME280;4073;42.626;25.386;2024-01-15T00:57:04;96673.44;;;-4.10;100.00
8061;BME280;4073;42.626;25.386;2024-01-15T00:59:30;96682.94;;;-4.03;100.00
8061;BME280;4073;42.626;25.386;2024-01-15T01:01:55;96684.16;;;-3.99;100.00
8061;BME280;4073;42.626;25.386;2024-01-15T01:04:20;96703.53;;;-3.87;100.00
8061;BME280;4073;42.626;25.386;2024-01-15T01:06:46;96687.84;;;-3.87;100.00
8061;BME280;4073;42.626;25.386;2024-01-15T01:09:11;96680.59;;;-3.91;100.00
8061;BME280;4073;42.626;25.386;2024-01-15T01:11:37;96677.78;;;-3.90;100.00
8061;BME280;4073;42.626;25.386;2024-01-15T01:14:02;96682.44;;;-3.85;100.00
8061;BME280;4073;42.626;25.386;2024-01-15T01:16:28;96664.28;;;-3.93;100.00
8061;BME280;4073;42.626;25.386;2024-01-15T01:18:54;96665.13;;;-3.86;100.00
8061;BME280;4073;42.626;25.386;2024-01-15T01:21:19;96669.38;;;-3.85;100.00
8061;BME280;4073;42.626;25.386;2024-01-15T01:23:45;96669.78;;;-3.82;100.00
8061;BME280;4073;42.626;25.386;2024-01-15T01:26:10;96678.63;;;-3.76;100.00
8061;BME280;4073;42.626;25.386;2024-01-15T01:28:36;96669.78;;;-3.82;100.00
8061;BME280;4073;42.626;25.386;2024-01-15T01:31:01;96669.41;;;-3.72;100.00
8061;BME280;4073;42.626;25.386;2024-01-15T01:33:27;96655.97;;;-3.69;100.00
8061;BME280;4073;42.626;25.386;2024-01-15T01:35:52;96660.78;;;-3.73;100.00
8061;BME280;4073;42.626;25.386;2024-01-15T01:38:18;96653.09;;;-3.81;100.00
8061;BME280;4073;42.626;25.386;2024-01-15T01:40:44;96657.09;;;-3.85;100.00
8061;BME280;4073;42.626;25.386;2024-01-15T01:43:10;96658.94;;;-3.85;100.00
8061;BME280;4073;42.626;25.386;2024-01-15T01:45:36;96643.41;;;-3.93;100.00
8061;BME280;4073;42.626;25.386;2024-01-15T01:48:01;96669.38;;;-3.85;100.00
8061;BME280;4073;42.626;25.386;2024-01-15T01:50:29;96647.88;;;-3.81;100.00
8061;BME280;4073;42.626;25.386;2024-01-15T01:52:55;96648.06;;;-3.82;100.00
8061;BME280;4073;42.626;25.386;2024-01-15T01:55:21;96647.91;;;-3.74;100.00
8061;BME280;4073;42.626;25.386;2024-01-15T01:57:50;96647.94;;;-3.68;100.00
8061;BME280;4073;42.626;25.386;2024-01-15T02:00:16;96640.13;;;-3.61;100.00
8061;BME280;4073;42.626;25.386;2024-01-15T02:02:42;96643.16;;;-3.58;100.00
8061;BME280;4073;42.626;25.386;2024-01-15T02:05:08;96626.66;;;-3.65;100.00
8061;BME280;4073;42.626;25.386;2024-01-15T02:07:36;96644.97;;;-3.58;100.00
8061;BME280;4073;42.626;25.386;2024-01-15T02:10:02;96635.34;;;-3.51;100.00
8061;BME280;4073;42.626;25.386;2024-01-15T02:12:27;96638.94;;;-3.52;100.00
8061;BME280;4073;42.626;25.386;2024-01-15T02:14:53;96642.75;;;-3.55;100.00
8061;BME280;4073;42.626;25.386;2024-01-15T02:17:19;96641.53;;;-3.59;100.00
8061;BME280;4073;42.626;25.386;2024-01-15T02:19:44;96639.69;;;-3.71;100.00
8061;BME280;4073;42.626;25.386;2024-01-15T02:22:10;96625.38;;;-3.88;100.00
8061;BME280;4073;42.626;25.386;2024-01-15T02:24:35;96631.97;;;-3.92;100.00
8061;BME280;4073;42.626;25.386;2024-01-15T02:27:01;96614.44;;;-4.05;100.00
8061;BME280;4073;42.626;25.386;2024-01-15T02:29:26;96617.66;;;-4.09;100.00
8061;BME280;4073;42.626;25.386;2024-01-15T02:31:52;96622.25;;;-4.11;100.00
8061;BME280;4073;42.626;25.386;2024-01-15T02:34:17;96619.22;;;-4.15;100.00
8061;BME280;4073;42.626;25.386;2024-01-15T02:36:43;96619.00;;;-4.20;100.00
8061;BME280;4073;42.626;25.386;2024-01-15T02:39:08;96624.41;;;-4.21;100.00
8061;BME280;4073;42.626;25.386;2024-01-15T02:41:34;96614.97;;;-4.22;100.00
8061;BME280;4073;42.626;25.386;2024-01-15T02:43:59;96610.16;;;-4.19;100.00
8061;BME280;4073;42.626;25.386;2024-01-15T02:46:25;96611.53;;;-4.23;100.00
8061;BME280;4073;42.626;25.386;2024-01-15T02:48:50;96614.13;;;-4.29;100.00
8061;BME280;4073;42.626;25.386;2024-01-15T02:51:16;96619.56;;;-4.24;100.00
8061;BME280;4073;42.626;25.386;2024-01-15T02:53:41;96601.47;;;-4.32;100.00
8061;BME280;4073;42.626;25.386;2024-01-15T02:56:07;96616.13;;;-4.25;100.00
8061;BME280;4073;42.626;25.386;2024-01-15T02:58:33;96623.00;;;-4.24;100.00
8061;BME280;4073;42.626;25.386;2024-01-15T03:00:58;96614.53;;;-4.26;100.00
8061;BME280;4073;42.626;25.386;2024-01-15T03:03:24;96626.56;;;-4.25;100.00
8061;BME280;4073;42.626;25.386;2024-01-15T03:05:49;96623.41;;;-4.20;100.00
8061;BME280;4073;42.626;25.386;2024-01-15T03:08:15;96627.03;;;-4.15;100.00
8061;BME280;4073;42.626;25.386;2024-01-15T03:10:40;96636.88;;;-4.17;100.00
8061;BME280;4073;42.626;25.386;2024-01-15T03:13:06;96630.47;;;-4.14;100.00
8061;BME280;4073;42.626;25.386;2024-01-15T03:15:31;96605.69;;;-4.25;100.00
8061;BME280;4073;42.626;25.386;2024-01-15T03:17:57;96619.84;;;-4.13;100.00
8061;BME280;4073;42.626;25.386;2024-01-15T03:20:22;96616.41;;;-4.13;100.00
8061;BME280;4073;42.626;25.386;2024-01-15T03:22:48;96617.97;;;-4.25;100.00
8061;BME280;4073;42.626;25.386;2024-01-15T03:25:14;96609.59;;;-4.48;100.00
8061;BME280;4073;42.626;25.386;2024-01-15T03:27:39;96619.88;;;-4.40;100.00
8061;BME280;4073;42.626;25.386;2024-01-15T03:30:05;96612.28;;;-4.35;100.00
8061;BME280;4073;42.626;25.386;2024-01-15T03:32:31;96609.88;;;-4.30;100.00
8061;BME280;4073;42.626;25.386;2024-01-15T03:34:56;96604.66;;;-4.30;100.00
8061;BME280;4073;42.626;25.386;2024-01-15T03:37:22;96604.06;;;-4.32;100.00
8061;BME280;4073;42.626;25.386;2024-01-15T03:39:47;96604.47;;;-4.35;100.00
8061;BME280;4073;42.626;25.386;2024-01-15T03:42:13;96608.28;;;-4.38;100.00
8061;BME280;4073;42.626;25.386;2024-01-15T03:44:39;96608.06;;;-4.36;100.00
8061;BME280;4073;42.626;25.386;2024-01-15T03:47:05;96596.81;;;-4.37;100.00
8061;BME280;4073;42.626;25.386;2024-01-15T03:49:30;96600.44;;;-4.38;100.00
8061;BME280;4073;42.626;25.386;2024-01-15T03:51:56;96600.00;;;-4.41;100.00
8061;BME280;4073;42.626;25.386;2024-01-15T03:54:22;96606.03;;;-4.41;100.00
8061;BME280;4073;42.626;25.386;2024-01-15T03:56:47;96601.59;;;-4.40;100.00
8061;BME280;4073;42.626;25.386;2024-01-15T03:59:13;96603.84;;;-4.37;100.00
8061;BME280;4073;42.626;25.386;2024-01-15T04:01:38;96601.03;;;-4.36;100.00
8061;BME280;4073;42.626;25.386;2024-01-15T04:04:04;96599.66;;;-4.32;100.00
8061;BME280;4073;42.626;25.386;2024-01-15T04:06:29;96610.09;;;-4.32;100.00
8061;BME280;4073;42.626;25.386;2024-01-15T04:08:55;96595.34;;;-4.46;100.00
8061;BME280;4073;42.626;25.386;2024-01-15T04:11:20;96600.81;;;-4.41;100.00
8061;BME280;4073;42.626;25.386;2024-01-15T04:13:47;96592.94;;;-4.47;100.00
8061;BME280;4073;42.626;25.386;2024-01-15T04:16:13;96608.84;;;-4.42;100.00
8061;BME280;4073;42.626;25.386;2024-01-15T04:18:38;96606.59;;;-4.45;100.00
8061;BME280;4073;42.626;25.386;2024-01-15T04:21:05;96600.38;;;-4.51;100.00
8061;BME280;4073;42.626;25.386;2024-01-15T04:23:32;96608.00;;;-4.77;100.00
8061;BME280;4073;42.626;25.386;2024-01-15T04:25:58;96608.09;;;-4.91;100.00
8061;BME280;4073;42.626;25.386;2024-01-15T04:28:23;96608.91;;;-4.91;100.00
8061;BME280;4073;42.626;25.386;2024-01-15T04:30:49;96609.91;;;-4.92;100.00
8061;BME280;4073;42.626;25.386;2024-01-15T04:33:14;96607.31;;;-4.92;100.00
8061;BME280;4073;42.626;25.386;2024-01-15T04:35:40;96614.31;;;-4.92;100.00
8061;BME280;4073;42.626;25.386;2024-01-15T04:38:05;96602.88;;;-4.91;100.00
8061;BME280;4073;42.626;25.386;2024-01-15T04:40:31;96597.63;;;-4.98;100.00
8061;BME280;4073;42.626;25.386;2024-01-15T04:42:56;96612.34;;;-4.90;100.00
8061;BME280;4073;42.626;25.386;2024-01-15T04:45:22;96612.94;;;-4.88;100.00
8061;BME280;4073;42.626;25.386;2024-01-15T04:47:53;96601.28;;;-4.92;100.00
8061;BME280;4073;42.626;25.386;2024-01-15T04:50:19;96599.97;;;-4.82;100.00
8061;BME280;4073;42.626;25.386;2024-01-15T04:52:44;96601.19;;;-4.78;100.00
8061;BME280;4073;42.626;25.386;2024-01-15T04:55:10;96596.38;;;-4.74;100.00
8061;BME280;4073;42.626;25.386;2024-01-15T04:57:35;96604.84;;;-4.72;100.00
8061;BME280;4073;42.626;25.386;2024-01-15T05:00:01;96608.28;;;-4.65;100.00
8061;BME280;4073;42.626;25.386;2024-01-15T05:02:26;96608.06;;;-4.70;100.00
8061;BME280;4073;42.626;25.386;2024-01-15T05:04:52;96607.28;;;-4.64;100.00
8061;BME280;4073;42.626;25.386;2024-01-15T05:07:17;96595.91;;;-4.57;100.00
8061;BME280;4073;42.626;25.386;2024-01-15T05:09:43;96593.72;;;-4.53;100.00
8061;BME280;4073;42.626;25.386;2024-01-15T05:12:08;96596.78;;;-4.43;100.00
8061;BME280;4073;42.626;25.386;2024-01-15T05:14:34;96602.44;;;-4.33;100.00
8061;BME280;4073;42.626;25.386;2024-01-15T05:16:59;96597.63;;;-4.36;100.00
8061;BME280;4073;42.626;25.386;2024-01-15T05:19:25;96582.38;;;-4.39;100.00
8061;BME280;4073;42.626;25.386;2024-01-15T05:21:50;96584.44;;;-4.62;100.00
8061;BME280;4073;42.626;25.386;2024-01-15T05:24:16;96575.13;;;-4.71;100.00
8061;BME280;4073;42.626;25.386;2024-01-15T05:26:41;96579.41;;;-4.91;100.00
8061;BME280;4073;42.626;25.386;2024-01-15T05:29:07;96577.34;;;-5.02;100.00
8061;BME280;4073;42.626;25.386;2024-01-15T05:31:32;96571.97;;;-4.94;100.00
8061;BME280;4073;42.626;25.386;2024-01-15T05:33:58;96579.84;;;-4.88;100.00
8061;BME280;4073;42.626;25.386;2024-01-15T05:36:23;96591.50;;;-4.84;100.00
8061;BME280;4073;42.626;25.386;2024-01-15T05:38:49;96576.06;;;-4.85;100.00
8061;BME280;4073;42.626;25.386;2024-01-15T05:41:15;96567.56;;;-4.94;100.00
8061;BME280;4073;42.626;25.386;2024-01-15T05:43:40;96572.03;;;-4.88;100.00
8061;BME280;4073;42.626;25.386;2024-01-15T05:46:06;96573.81;;;-4.88;100.00
8061;BME280;4073;42.626;25.386;2024-01-15T05:48:31;96566.81;;;-4.88;100.00
8061;BME280;4073;42.626;25.386;2024-01-15T05:50:57;96569.03;;;-4.85;100.00
8061;BME280;4073;42.626;25.386;2024-01-15T05:53:22;96561.78;;;-4.89;100.00
8061;BME280;4073;42.626;25.386;2024-01-15T05:55:47;96571.66;;;-4.85;100.00
8061;BME280;4073;42.626;25.386;2024-01-15T05:58:13;96562.44;;;-4.81;100.00
8061;BME280;4073;42.626;25.386;2024-01-15T06:00:38;96559.59;;;-4.86;100.00
8061;BME280;4073;42.626;25.386;2024-01-15T06:03:04;96566.84;;;-4.81;100.00
8061;BME280;4073;42.626;25.386;2024-01-15T06:05:29;96556.22;;;-4.80;100.00
8061;BME280;4073;42.626;25.386;2024-01-15T06:07:55;96563.72;;;-4.70;100.00
8061;BME280;4073;42.626;25.386;2024-01-15T06:10:21;96563.00;;;-4.58;100.00
8061;BME280;4073;42.626;25.386;2024-01-15T06:12:46;96575.06;;;-4.50;100.00
8061;BME280;4073;42.626;25.386;2024-01-15T06:15:12;96567.28;;;-4.44;100.00
8061;BME280;4073;42.626;25.386;2024-01-15T06:17:38;96569.91;;;-4.37;100.00
8061;BME280;4073;42.626;25.386;2024-01-15T06:20:04;96573.97;;;-4.35;100.00
8061;BME280;4073;42.626;25.386;2024-01-15T06:22:29;96564.75;;;-4.31;100.00
8061;BME280;4073;42.626;25.386;2024-01-15T06:24:55;96575.84;;;-4.16;100.00
8061;BME280;4073;42.626;25.386;2024-01-15T06:27:21;96569.53;;;-3.81;100.00
8061;BME280;4073;42.626;25.386;2024-01-15T06:29:47;96574.88;;;-2.90;100.00
8061;BME280;4073;42.626;25.386;2024-01-15T06:32:13;96569.38;;;-2.36;100.00
8061;BME280;4073;42.626;25.386;2024-01-15T06:34:38;96570.09;;;-1.72;100.00
8061;BME280;4073;42.626;25.386;2024-01-15T06:37:04;96564.59;;;-1.02;100.00
8061;BME280;4073;42.626;25.386;2024-01-15T06:39:30;96573.66;;;-0.31;97.18
8061;BME280;4073;42.626;25.386;2024-01-15T06:41:55;96578.53;;;0.02;93.54
8061;BME280;4073;42.626;25.386;2024-01-15T06:44:21;96586.94;;;0.11;89.99
8061;BME280;4073;42.626;25.386;2024-01-15T06:46:47;96579.53;;;-0.53;94.35
8061;BME280;4073;42.626;25.386;2024-01-15T06:49:13;96585.44;;;-0.82;97.95
8061;BME280;4073;42.626;25.386;2024-01-15T06:51:39;96580.53;;;-0.97;100.00
8061;BME280;4073;42.626;25.386;2024-01-15T06:54:05;96564.13;;;-1.17;100.00
8061;BME280;4073;42.626;25.386;2024-01-15T06:56:31;96570.81;;;-0.96;100.00
8061;BME280;4073;42.626;25.386;2024-01-15T06:58:57;96575.75;;;-0.82;100.00
8061;BME280;4073;42.626;25.386;2024-01-15T07:01:22;96550.13;;;-0.62;100.00
8061;BME280;4073;42.626;25.386;2024-01-15T07:03:48;96571.00;;;-0.31;99.03
8061;BME280;4073;42.626;25.386;2024-01-15T07:06:13;96558.69;;;-0.30;99.31
8061;BME280;4073;42.626;25.386;2024-01-15T07:08:39;96574.16;;;-0.04;100.00
8061;BME280;4073;42.626;25.386;2024-01-15T07:11:05;96567.16;;;1.08;95.41
8061;BME280;4073;42.626;25.386;2024-01-15T07:13:31;96567.41;;;2.38;82.86
8061;BME280;4073;42.626;25.386;2024-01-15T07:15:56;96568.19;;;5.17;67.79
8061;BME280;4073;42.626;25.386;2024-01-15T07:18:22;96567.13;;;7.34;53.88
8061;BME280;4073;42.626;25.386;2024-01-15T07:20:48;96567.44;;;9.44;44.68
8061;BME280;4073;42.626;25.386;2024-01-15T07:23:14;96575.81;;;9.94;41.08
8061;BME280;4073;42.626;25.386;2024-01-15T07:25:39;96568.19;;;10.40;39.95
8061;BME280;4073;42.626;25.386;2024-01-15T07:28:05;96569.56;;;10.80;38.57
8061;BME280;4073;42.626;25.386;2024-01-15T07:30:31;96569.41;;;11.82;37.19
8061;BME280;4073;42.626;25.386;2024-01-15T07:32:56;96571.59;;;11.43;38.58
8061;BME280;4073;42.626;25.386;2024-01-15T07:35:22;96573.03;;;10.99;39.54
8061;BME280;4073;42.626;25.386;2024-01-15T07:37:47;96565.25;;;11.39;38.45
8061;BME280;4073;42.626;25.386;2024-01-15T07:40:13;96570.53;;;11.95;36.51
8061;BME280;4073;42.626;25.386;2024-01-15T07:42:38;96584.88;;;13.48;34.43
8061;BME280;4073;42.626;25.386;2024-01-15T07:45:04;96580.00;;;13.94;33.40
8061;BME280;4073;42.626;25.386;2024-01-15T07:47:30;96571.63;;;14.48;32.76
8061;BME280;4073;42.626;25.386;2024-01-15T07:49:56;96578.03;;;14.08;33.45
8061;BME280;4073;42.626;25.386;2024-01-15T07:52:21;96576.53;;;13.71;32.97
8061;BME280;4073;42.626;25.386;2024-01-15T07:54:47;96578.94;;;12.47;34.85
8061;BME280;4073;42.626;25.386;2024-01-15T07:57:13;96572.91;;;11.64;36.78
8061;BME280;4073;42.626;25.386;2024-01-15T07:59:38;96582.66;;;11.55;38.99
8061;BME280;4073;42.626;25.386;2024-01-15T08:02:05;96585.72;;;11.99;37.96
8061;BME280;4073;42.626;25.386;2024-01-15T08:04:31;96582.38;;;13.51;35.39
8061;BME280;4073;42.626;25.386;2024-01-15T08:06:57;96563.00;;;14.07;34.05
8061;BME280;4073;42.626;25.386;2024-01-15T08:09:23;96577.41;;;15.62;30.30
8061;BME280;4073;42.626;25.386;2024-01-15T08:11:48;96572.16;;;15.31;31.02
8061;BME280;4073;42.626;25.386;2024-01-15T08:14:17;96580.84;;;15.11;32.09
8061;BME280;4073;42.626;25.386;2024-01-15T08:16:43;96583.69;;;15.32;31.22
8061;BME280;4073;42.626;25.386;2024-01-15T08:19:09;96581.84;;;15.58;30.42
8061;BME280;4073;42.626;25.386;2024-01-15T08:21:35;96583.66;;;14.50;32.09
8061;BME280;4073;42.626;25.386;2024-01-15T08:24:02;96582.19;;;12.31;36.65
8061;BME280;4073;42.626;25.386;2024-01-15T08:26:28;96589.84;;;10.81;39.52
8061;BME280;4073;42.626;25.386;2024-01-15T08:28:54;96591.44;;;9.49;45.33
8061;BME280;4073;42.626;25.386;2024-01-15T08:31:20;96592.03;;;8.14;50.88
8061;BME280;4073;42.626;25.386;2024-01-15T08:33:45;96598.69;;;7.11;56.33
8061;BME280;4073;42.626;25.386;2024-01-15T08:36:11;96597.72;;;6.50;63.54
8061;BME280;4073;42.626;25.386;2024-01-15T08:38:37;96586.72;;;6.22;64.19
8061;BME280;4073;42.626;25.386;2024-01-15T08:41:02;96584.81;;;6.17;64.65
8061;BME280;4073;42.626;25.386;2024-01-15T08:43:28;96594.22;;;6.40;66.76
8061;BME280;4073;42.626;25.386;2024-01-15T08:45:54;96581.56;;;6.62;61.47
8061;BME280;4073;42.626;25.386;2024-01-15T08:48:19;96579.63;;;6.37;62.23
8061;BME280;4073;42.626;25.386;2024-01-15T08:50:45;96577.81;;;6.01;62.64
8061;BME280;4073;42.626;25.386;2024-01-15T08:53:13;96582.34;;;5.64;67.74
8061;BME280;4073;42.626;25.386;2024-01-15T08:55:39;96579.03;;;5.47;71.27
8061;BME280;4073;42.626;25.386;2024-01-15T08:58:05;96577.59;;;5.34;70.49
8061;BME280;4073;42.626;25.386;2024-01-15T09:00:31;96575.56;;;5.15;71.64
8061;BME280;4073;42.626;25.386;2024-01-15T09:02:57;96574.00;;;5.19;75.52
8061;BME280;4073;42.626;25.386;2024-01-15T09:05:22;96573.34;;;6.63;68.59
8061;BME280;4073;42.626;25.386;2024-01-15T09:07:48;96550.03;;;8.74;59.89
8061;BME280;4073;42.626;25.386;2024-01-15T09:10:14;96545.94;;;11.05;48.66
8061;BME280;4073;42.626;25.386;2024-01-15T09:12:40;96541.25;;;11.98;43.70
8061;BME280;4073;42.626;25.386;2024-01-15T09:15:05;96523.66;;;11.92;43.15
8061;BME280;4073;42.626;25.386;2024-01-15T09:17:34;96527.28;;;12.28;41.93
8061;BME280;4073;42.626;25.386;2024-01-15T09:19:59;96522.72;;;12.15;41.30
8061;BME280;4073;42.626;25.386;2024-01-15T09:22:26;96520.09;;;11.97;41.41
8061;BME280;4073;42.626;25.386;2024-01-15T09:24:54;96522.78;;;11.14;41.38
8061;BME280;4073;42.626;25.386;2024-01-15T09:27:20;96517.72;;;10.33;42.70
8061;BME280;4073;42.626;25.386;2024-01-15T09:29:45;96511.94;;;9.46;44.89
8061;BME280;4073;42.626;25.386;2024-01-15T09:32:12;96506.34;;;8.70;47.52
8061;BME280;4073;42.626;25.386;2024-01-15T09:34:38;96495.97;;;8.00;49.52
8061;BME280;4073;42.626;25.386;2024-01-15T09:37:03;96497.44;;;7.42;51.76
8061;BME280;4073;42.626;25.386;2024-01-15T09:39:29;96502.50;;;6.99;54.60
8061;BME280;4073;42.626;25.386;2024-01-15T09:41:56;96493.69;;;6.78;57.08
8061;BME280;4073;42.626;25.386;2024-01-15T09:44:22;96485.97;;;6.67;58.44
8061;BME280;4073;42.626;25.386;2024-01-15T09:46:48;96484.63;;;6.64;55.17
8061;BME280;4073;42.626;25.386;2024-01-15T09:49:17;96479.38;;;6.94;54.44
8061;BME280;4073;42.626;25.386;2024-01-15T09:51:43;96459.19;;;7.03;55.40
8061;BME280;4073;42.626;25.386;2024-01-15T09:54:09;96455.16;;;7.21;56.06
8061;BME280;4073;42.626;25.386;2024-01-15T09:56:35;96454.31;;;7.50;54.07
8061;BME280;4073;42.626;25.386;2024-01-15T09:59:01;96433.88;;;7.56;55.87
8061;BME280;4073;42.626;25.386;2024-01-15T10:01:28;96420.81;;;7.59;54.23
8061;BME280;4073;42.626;25.386;2024-01-15T10:03:54;96424.03;;;7.46;54.35
8061;BME280;4073;42.626;25.386;2024-01-15T10:06:21;96423.00;;;7.22;56.11
8061;BME280;4073;42.626;25.386;2024-01-15T10:08:49;96423.28;;;7.01;60.40
8061;BME280;4073;42.626;25.386;2024-01-15T10:11:15;96412.13;;;6.84;61.34
8061;BME280;4073;42.626;25.386;2024-01-15T10:13:43;96416.13;;;6.76;61.68
8061;BME280;4073;42.626;25.386;2024-01-15T10:16:09;96403.91;;;6.80;60.98
8061;BME280;4073;42.626;25.386;2024-01-15T10:18:34;96394.34;;;6.64;58.58
8061;BME280;4073;42.626;25.386;2024-01-15T10:21:02;96391.66;;;6.44;58.24
8061;BME280;4073;42.626;25.386;2024-01-15T10:23:28;96378.88;;;6.21;58.60
8061;BME280;4073;42.626;25.386;2024-01-15T10:25:53;96395.34;;;6.28;56.93
8061;BME280;4073;42.626;25.386;2024-01-15T10:28:19;96395.09;;;6.25;55.72
8061;BME280;4073;42.626;25.386;2024-01-15T10:30:45;96384.19;;;6.16;59.07
8061;BME280;4073;42.626;25.386;2024-01-15T10:33:11;96378.34;;;6.14;56.84
8061;BME280;4073;42.626;25.386;2024-01-15T10:35:37;96390.28;;;6.12;60.28
8061;BME280;4073;42.626;25.386;2024-01-15T10:38:05;96382.88;;;6.14;59.48
8061;BME280;4073;42.626;25.386;2024-01-15T10:40:30;96379.19;;;6.35;60.44
8061;BME280;4073;42.626;25.386;2024-01-15T10:42:56;96369.63;;;6.79;59.99
8061;BME280;4073;42.626;25.386;2024-01-15T10:45:23;96366.03;;;7.53;55.95
8061;BME280;4073;42.626;25.386;2024-01-15T10:47:48;96359.38;;;8.53;53.19
8061;BME280;4073;42.626;25.386;2024-01-15T10:50:14;96361.56;;;9.84;46.69
8061;BME280;4073;42.626;25.386;2024-01-15T10:52:41;96356.66;;;10.52;42.71
8061;BME280;4073;42.626;25.386;2024-01-15T10:55:10;96341.44;;;10.84;41.78
8061;BME280;4073;42.626;25.386;2024-01-15T10:57:36;96325.97;;;11.27;41.22
8061;BME280;4073;42.626;25.386;2024-01-15T11:00:05;96331.72;;;11.34;39.92
8061;BME280;4073;42.626;25.386;2024-01-15T11:02:32;96320.66;;;11.81;39.43
8061;BME280;4073;42.626;25.386;2024-01-15T11:04:59;96300.06;;;12.03;38.06
8061;BME280;4073;42.626;25.386;2024-01-15T11:07:26;96294.16;;;12.50;36.99
8061;BME280;4073;42.626;25.386;2024-01-15T11:09:52;96287.22;;;12.71;37.27
8061;BME280;4073;42.626;25.386;2024-01-15T11:12:18;96293.13;;;12.60;37.48
8061;BME280;4073;42.626;25.386;2024-01-15T11:14:48;96285.25;;;12.63;35.70
8061;BME280;4073;42.626;25.386;2024-01-15T11:17:16;96274.56;;;12.72;35.72
8061;BME280;4073;42.626;25.386;2024-01-15T11:25:05;96271.44;;;13.31;33.52
8061;BME280;4073;42.626;25.386;2024-01-15T11:27:42;96272.22;;;13.71;33.13
8061;BME280;4073;42.626;25.386;2024-01-15T11:30:09;96259.72;;;13.66;32.84
8061;BME280;4073;42.626;25.386;2024-01-15T11:32:38;96255.81;;;13.89;33.28
8061;BME280;4073;42.626;25.386;2024-01-15T11:35:08;96260.53;;;13.84;33.30
8061;BME280;4073;42.626;25.386;2024-01-15T11:40:23;96261.16;;;13.72;32.97
8061;BME280;4073;42.626;25.386;2024-01-15T11:42:49;96254.34;;;13.66;32.43
8061;BME280;4073;42.626;25.386;2024-01-15T11:45:21;96259.66;;;13.49;32.27
8061;BME280;4073;42.626;25.386;2024-01-15T11:50:26;96236.75;;;13.43;32.61
8061;BME280;4073;42.626;25.386;2024-01-15T11:53:13;96239.72;;;13.42;32.72
8061;BME280;4073;42.626;25.386;2024-01-15T11:55:43;96235.38;;;13.54;32.10
8061;BME280;4073;42.626;25.386;2024-01-15T11:58:11;96244.19;;;13.46;32.22
8061;BME280;4073;42.626;25.386;2024-01-15T12:00:44;96246.50;;;13.31;32.37
8061;BME280;4073;42.626;25.386;2024-01-15T12:03:10;96253.03;;;13.07;32.87
8061;BME280;4073;42.626;25.386;2024-01-15T12:05:40;96248.81;;;12.62;33.15
8061;BME280;4073;42.626;25.386;2024-01-15T12:08:07;96240.53;;;12.28;33.58
8061;BME280;4073;42.626;25.386;2024-01-15T12:10:37;96239.59;;;11.75;34.74
8061;BME280;4073;42.626;25.386;2024-01-15T12:13:14;96240.03;;;11.01;35.84
8061;BME280;4073;42.626;25.386;2024-01-15T12:15:41;96235.06;;;10.81;36.95
8061;BME280;4073;42.626;25.386;2024-01-15T12:18:08;96238.28;;;10.65;37.57
8061;BME280;4073;42.626;25.386;2024-01-15T12:20:35;96243.19;;;10.44;37.41
8061;BME280;4073;42.626;25.386;2024-01-15T12:23:01;96235.00;;;10.22;37.88
8061;BME280;4073;42.626;25.386;2024-01-15T12:25:29;96234.16;;;10.08;38.17
8061;BME280;4073;42.626;25.386;2024-01-15T12:27:55;96239.56;;;9.84;38.27
8061;BME280;4073;42.626;25.386;2024-01-15T12:30:21;96238.25;;;9.63;38.88
8061;BME280;4073;42.626;25.386;2024-01-15T12:32:47;96234.41;;;9.51;38.67
8061;BME280;4073;42.626;25.386;2024-01-15T12:35:13;96232.78;;;9.31;41.11
8061;BME280;4073;42.626;25.386;2024-01-15T12:37:40;96245.31;;;9.12;43.02
8061;BME280;4073;42.626;25.386;2024-01-15T12:40:06;96250.81;;;8.97;43.80
8061;BME280;4073;42.626;25.386;2024-01-15T12:42:33;96249.03;;;8.88;44.45
8061;BME280;4073;42.626;25.386;2024-01-15T12:45:00;96243.72;;;8.88;44.81
8061;BME280;4073;42.626;25.386;2024-01-15T12:47:25;96249.53;;;8.90;44.90
8061;BME280;4073;42.626;25.386;2024-01-15T12:49:55;96246.03;;;8.94;45.92
8061;BME280;4073;42.626;25.386;2024-01-15T12:52:20;96233.25;;;8.91;46.71
8061;BME280;4073;42.626;25.386;2024-01-15T12:54:48;96234.34;;;8.90;47.03
8061;BME280;4073;42.626;25.386;2024-01-15T12:57:14;96223.16;;;8.88;47.50
8061;BME280;4073;42.626;25.386;2024-01-15T12:59:39;96217.56;;;8.90;48.33
8061;BME280;4073;42.626;25.386;2024-01-15T13:02:05;96216.22;;;8.92;47.85
8061;BME280;4073;42.626;25.386;2024-01-15T13:04:31;96217.63;;;8.85;47.82
8061;BME280;4073;42.626;25.386;2024-01-15T13:06:56;96208.66;;;8.76;48.21
8061;BME280;4073;42.626;25.386;2024-01-15T13:09:22;96217.50;;;8.95;47.83
8061;BME280;4073;42.626;25.386;2024-01-15T13:11:48;96214.94;;;9.08;47.51